Nearby METAR Reports

 

KMTN - Baltimore/Martin, Maryland, USA
Distance from station: SSE 8mi, 13km
Updated: Sun, 19-Apr-2015 10:50am EDT
Mostly cloudy
Mostly cloudy
 Wind from E
Wind: E 16 mph , 26 km/h, Gust: 18 mph , 30 km/h
Temperature: 63°F , 17°C
Dew Point: 45°F , 7°C
Humidity: 52%
Barometer: 30.22 inHg , 1023.4 hPa
Clouds: Mostly cloudy
Visibility: 10 miles , 16 km
Cloud details: Mostly cloudy 20000 ft
2015/04/19 14:50 KMTN 191450Z 09014G16KT 10SM BKN200 17/07 A3022
KDMH - Baltimore/Dwntwn, Maryland, USA
Distance from station: SW 12mi, 19km
Updated: Sun, 19-Apr-2015 10:54am EDT

 
Temperature: 63°F , 17°C
Dew Point: 39°F , 4°C
Humidity: 42%
Barometer: 30.23 inHg , 1023.7 hPa
2015/04/19 14:54 KDMH 191454Z AUTO 17/04 A3023 RMK AO1 SLP235 T01670044 51016
 
KBWI - Balto/Wash Intl, Maryland, USA
Distance from station: SSW 20mi, 33km
Updated: Sun, 19-Apr-2015 10:54am EDT
Mostly cloudy
Mostly cloudy
 Wind from ENE
Wind: ENE 21 mph , 33 km/h
Temperature: 61°F , 16°C
Dew Point: 43°F , 6°C
Humidity: 52%
Barometer: 30.19 inHg , 1022.4 hPa
Clouds: Mostly cloudy
Visibility: 10 miles , 16 km
Cloud details: Few Clouds 10000 ft
Mostly cloudy 25000 ft
2015/04/19 14:54 KBWI 191454Z 07018KT 10SM FEW100 BKN250 16/06 A3019 RMK AO2 SLP224 T01610056 53011
KDMW - Carroll Cnty, Maryland, USA
Distance from station: WNW 30mi, 48km
Updated: Sun, 19-Apr-2015 11:30am EDT
Clear
Clear
 Wind from ESE
Wind: ESE 10 mph , 17 km/h, Gust: 20 mph , 31 km/h
Temperature: 64°F , 18°C
Dew Point: 30°F , -1°C
Humidity: 28%
Barometer: 30.18 inHg , 1022 hPa
Clouds: Clear
Visibility: 10 miles , 16 km
2015/04/19 15:30 KDMW 191530Z AUTO 11009G17KT 080V140 10SM CLR 18/M01 A3018 RMK AO2
 
KNAK - Annapolis/Naval, Maryland, USA
Distance from station: S 30mi, 48km
Updated: Sun, 19-Apr-2015 10:54am EDT
Clear
Clear
 Wind from E
Wind: E 15 mph , 24 km/h
Temperature: 61°F , 16°C
Dew Point: 43°F , 6°C
Humidity: 52%
Barometer: 30.19 inHg , 1022.4 hPa
Clouds: Clear
Visibility: 10 miles , 16 km
2015/04/19 14:54 KNAK 191454Z AUTO 10013KT 10SM CLR 16/06 A3019 RMK AO2 SLP224 T01560061 51009
KW29 - Stevensville, Maryland, USA
Distance from station: SSE 31mi, 50km
Updated: Sun, 19-Apr-2015 11:29am EDT

 Wind from ESE
Wind: ESE 20 mph , 31 km/h, Gust: 25 mph , 41 km/h
Temperature: 63°F , 17°C
Dew Point: 37°F , 3°C
Humidity: 39%
Barometer: 30.18 inHg , 1022 hPa
Visibility: 10 miles , 16 km
2015/04/19 15:29 KW29 191529Z AUTO 11017G22KT 10SM 17/03 A3018 RMK AO1
 
KCGS - College Park, Maryland, USA
Distance from station: SW 38mi, 61km
Updated: Sun, 19-Apr-2015 11:30am EDT
Clear
Clear
 Wind from SE
Wind: SE 9 mph , 15 km/h, Gust: 20 mph , 31 km/h
Temperature: 64°F , 18°C
Dew Point: 41°F , 5°C
Humidity: 43%
Barometer: 30.18 inHg , 1022 hPa
Clouds: Clear
Visibility: 10 miles , 16 km
2015/04/19 15:30 KCGS 191530Z AUTO 14008G17KT 10SM CLR 18/05 A3018 RMK AO1
KGAI - Gaithersburg, Maryland, USA
Distance from station: WSW 40mi, 65km
Updated: Sun, 19-Apr-2015 11:35am EDT
Clear
Clear
 Wind from E
Wind: E 13 mph , 20 km/h, Gust: 21 mph , 33 km/h
Temperature: 64°F , 18°C
Dew Point: 37°F , 3°C
Humidity: 37%
Barometer: 30.21 inHg , 1023 hPa
Clouds: Clear
Visibility: 10 miles , 16 km
2015/04/19 15:35 KGAI 191535Z AUTO 10011G18KT 10SM CLR 18/03 A3021 RMK AO1
 
KTHV - York, Pennsylvania, USA
Distance from station: NNW 40mi, 65km
Updated: Sun, 19-Apr-2015 10:53am EDT
Clear
Clear
 Wind from ESE
Wind: ESE 14 mph , 22 km/h, Gust: 20 mph , 31 km/h
Temperature: 63°F , 17°C
Dew Point: 34°F , 1°C
Humidity: 34%
Barometer: 30.19 inHg , 1022.4 hPa
Clouds: Clear
Visibility: 10 miles , 16 km
2015/04/19 14:53 KTHV 191453Z AUTO 11012G17KT 10SM CLR 17/01 A3019 RMK AO2 SLP223 T01720006 51003
KFDK - Frederick, Maryland, USA
Distance from station: W 47mi, 75km
Updated: Sun, 19-Apr-2015 10:50am EDT
Clear
Clear
 Wind from SE
Wind: SE 10 mph , 17 km/h, Gust: 17 mph , 28 km/h
Temperature: 66°F , 19°C
Dew Point: 28°F , -2°C
Humidity: 24%
Barometer: 30.20 inHg , 1022.7 hPa
Clouds: Clear
Visibility: 10 miles , 16 km
2015/04/19 14:50 KFDK 191450Z 13009G15KT 10SM SKC 19/M02 A3020
 
KESN - Easton/Newnam, Maryland, USA
Distance from station: SSE 48mi, 78km
Updated: Sun, 19-Apr-2015 10:50am EDT
Clear
Clear
 Wind from E
Wind: E 16 mph , 26 km/h, Gust: 25 mph , 41 km/h
Temperature: 64°F , 18°C
Dew Point: 48°F , 9°C
Humidity: 56%
Barometer: 30.22 inHg , 1023.4 hPa
Clouds: Clear
Visibility: 10 miles , 16 km
2015/04/19 14:50 KESN 191450Z 10014G22KT 10SM SKC 18/09 A3022
KDCA - Washington/Natl, Washington D.c., USA
Distance from station: SW 49mi, 79km
Updated: Sun, 19-Apr-2015 10:52am EDT
Mostly cloudy
Mostly cloudy
 Wind from E
Wind: E 14 mph , 22 km/h, Gust: 23 mph , 37 km/h
Temperature: 66°F , 19°C
Dew Point: 41°F , 5°C
Humidity: 40%
Barometer: 30.17 inHg , 1021.7 hPa
Clouds: Mostly cloudy
Visibility: 10 miles , 16 km
Cloud details: Partly cloudy 10000 ft
Mostly cloudy 25000 ft
2015/04/19 14:52 KDCA 191452Z 08012G20KT 10SM SCT100 BKN250 19/05 A3017 RMK AO2 SLP217 60001 T01890050 53007 $
 
KLNS - Lancaster, Pennsylvania, USA
Distance from station: N 49mi, 79km
Updated: Sun, 19-Apr-2015 10:53am EDT
Clear
Clear
 Wind from SE
Wind: SE 10 mph , 17 km/h
Temperature: 61°F , 16°C
Dew Point: 34°F , 1°C
Humidity: 36%
Barometer: 30.20 inHg , 1022.7 hPa
Clouds: Clear
Visibility: 10 miles , 16 km
2015/04/19 14:53 KLNS 191453Z 13009KT 10SM CLR 16/01 A3020 RMK AO2 SLP227 T01560011 51007
KILG - Wilmington, Delaware, USA
Distance from station: ENE 50mi, 81km
Updated: Sun, 19-Apr-2015 10:51am EDT
Clear
Clear
 Wind from E
Wind: E 8 mph , 13 km/h, Gust: 17 mph , 28 km/h
Temperature: 61°F , 16°C
Dew Point: 39°F , 4°C
Humidity: 45%
Barometer: 30.23 inHg , 1023.7 hPa
Clouds: Clear
Visibility: 10 miles , 16 km
2015/04/19 14:51 KILG 191451Z AUTO 09007G15KT 10SM CLR 16/04 A3023 RMK AO2 SLP237 T01560044 51010